Time;durP1;ratioP1;P1;durP2;ratioP2;P2;SDS_P1;SDS_P2;PMS_P1;PMS_P2;Temp;Humidity;BMP_temperature;BMP_pressure;BME280_temperature;BME280_humidity;BME280_pressure;Samples;Min_cycle;Max_cycle;Signal;HPM_P1;HPM_P2
2023/06/09 00:00:17;;;;;;;22.83;20.77;;;15.60;99.90;;;;;;5060360;28;20435;-44
2023/06/09 00:02:44;;;;;;;21.37;19.50;;;15.60;99.90;;;;;;5057721;28;20467;-42
2023/06/09 00:05:11;;;;;;;22.90;20.90;;;15.60;99.90;;;;;;5060416;28;20436;-46
2023/06/09 00:07:37;;;;;;;20.77;18.90;;;15.50;99.90;;;;;;5060406;28;20637;-46
2023/06/09 00:10:04;;;;;;;22.53;20.50;;;15.50;99.90;;;;;;5059577;28;21023;-45
2023/06/09 00:12:30;;;;;;;22.10;20.00;;;15.50;99.90;;;;;;5059510;28;20458;-43
2023/06/09 00:14:55;;;;;;;21.73;19.83;;;15.50;99.90;;;;;;5059415;28;20438;-45
2023/06/09 00:17:24;;;;;;;21.97;20.00;;;15.40;99.90;;;;;;5060231;28;20777;-47
2023/06/09 00:19:52;;;;;;;21.83;19.93;;;15.40;99.90;;;;;;5057037;28;20184;-44
2023/06/09 00:22:21;;;;;;;22.23;20.07;;;15.40;99.90;;;;;;5059642;28;20466;-43
2023/06/09 00:24:46;;;;;;;21.77;19.80;;;15.40;99.90;;;;;;5059996;28;20840;-45
2023/06/09 00:27:12;;;;;;;21.13;19.30;;;15.30;99.90;;;;;;5059842;28;20431;-46
2023/06/09 00:29:37;;;;;;;21.80;19.83;;;15.30;99.90;;;;;;5060638;28;20216;-42
2023/06/09 00:32:04;;;;;;;22.27;20.33;;;15.20;99.90;;;;;;5059294;28;20197;-46
2023/06/09 00:34:30;;;;;;;21.77;19.87;;;15.20;99.90;;;;;;5060558;28;20716;-42
2023/06/09 00:36:55;;;;;;;21.03;19.17;;;15.20;99.90;;;;;;5060544;28;20419;-46
2023/06/09 00:39:22;;;;;;;22.43;20.33;;;15.20;99.90;;;;;;5059575;28;20238;-43
2023/06/09 00:41:48;;;;;;;20.83;19.00;;;15.20;99.90;;;;;;5058231;28;20605;-43
2023/06/09 00:44:15;;;;;;;23.27;21.07;;;15.10;99.90;;;;;;5059647;28;20435;-46
2023/06/09 00:46:42;;;;;;;23.57;21.47;;;15.10;99.90;;;;;;5059263;28;20308;-48
2023/06/09 00:49:09;;;;;;;22.90;20.67;;;15.10;99.90;;;;;;5058578;28;20904;-47
2023/06/09 00:51:36;;;;;;;22.47;20.33;;;15.00;99.90;;;;;;5060116;28;20450;-45
2023/06/09 00:54:03;;;;;;;21.03;19.13;;;15.00;99.90;;;;;;5060124;28;20455;-48
2023/06/09 00:56:31;;;;;;;21.63;19.60;;;15.00;99.90;;;;;;5060031;28;20428;-44
2023/06/09 00:58:57;;;;;;;21.80;19.60;;;14.90;99.90;;;;;;5060077;28;20458;-47
2023/06/09 01:01:23;;;;;;;22.13;20.10;;;14.90;99.90;;;;;;5059775;28;20928;-44
2023/06/09 01:03:50;;;;;;;23.17;20.97;;;14.90;99.90;;;;;;5059158;28;20431;-47
2023/06/09 01:06:38;;;;;;;22.27;20.27;;;14.80;99.90;;;;;;5060201;28;21033;-50
2023/06/09 01:09:13;;;;;;;21.30;19.40;;;14.80;99.90;;;;;;5060445;28;20461;-46
2023/06/09 01:12:00;;;;;;;21.33;19.33;;;14.80;99.90;;;;;;5058188;28;20848;-45
2023/06/09 01:14:36;;;;;;;21.73;19.83;;;14.70;99.90;;;;;;5058280;28;20439;-43
2023/06/09 01:17:11;;;;;;;21.40;19.50;;;14.70;99.90;;;;;;5059730;28;20425;-47
2023/06/09 01:19:39;;;;;;;22.13;20.07;;;14.70;99.90;;;;;;5058501;28;20439;-51
2023/06/09 01:22:42;;;;;;;21.17;19.27;;;14.60;99.90;;;;;;5059769;28;20455;-47
2023/06/09 01:25:34;;;;;;;21.27;19.27;;;14.60;99.90;;;;;;5059141;28;20968;-44
2023/06/09 01:28:03;;;;;;;20.27;18.43;;;14.60;99.90;;;;;;5059234;28;20427;-43
2023/06/09 01:30:30;;;;;;;22.20;20.10;;;14.60;99.90;;;;;;5059324;28;20420;-59
2023/06/09 01:33:01;;;;;;;20.80;19.00;;;14.50;99.90;;;;;;5059539;28;20419;-57
2023/06/09 01:35:28;;;;;;;21.00;19.10;;;14.50;99.90;;;;;;5059374;28;20451;-57
2023/06/09 01:37:54;;;;;;;21.57;19.60;;;14.50;99.90;;;;;;5059570;28;20894;-60
2023/06/09 01:40:20;;;;;;;21.53;19.63;;;14.40;99.90;;;;;;5059109;28;20851;-59
2023/06/09 01:42:46;;;;;;;22.73;20.80;;;14.40;99.90;;;;;;5058349;28;20470;-60
2023/06/09 01:45:11;;;;;;;21.30;19.40;;;14.40;99.90;;;;;;5059261;28;20273;-60
2023/06/09 01:47:37;;;;;;;20.13;18.23;;;14.30;99.90;;;;;;5059403;28;20284;-59
2023/06/09 01:50:05;;;;;;;19.80;18.10;;;14.30;99.90;;;;;;5058644;28;20607;-59
2023/06/09 01:52:57;;;;;;;20.70;18.87;;;14.20;99.90;;;;;;5059426;28;20450;-56
2023/06/09 01:55:29;;;;;;;21.60;19.50;;;14.20;99.90;;;;;;5059187;28;20819;-50
2023/06/09 01:58:23;;;;;;;20.90;19.00;;;14.20;99.90;;;;;;5059001;28;20431;-59
2023/06/09 02:00:50;;;;;;;21.00;19.20;;;14.20;99.90;;;;;;5059448;28;20566;-60
2023/06/09 02:03:20;;;;;;;21.37;19.50;;;14.10;99.90;;;;;;5059568;28;20428;-46
2023/06/09 02:05:46;;;;;;;21.23;19.30;;;14.10;99.90;;;;;;5059724;28;20431;-57
2023/06/09 02:08:13;;;;;;;20.87;18.87;;;14.10;99.90;;;;;;5057964;28;20858;-59
2023/06/09 02:10:40;;;;;;;21.20;19.27;;;14.00;99.90;;;;;;5057870;28;20942;-59
2023/06/09 02:13:13;;;;;;;21.30;19.40;;;14.00;99.90;;;;;;5059370;28;20809;-50
2023/06/09 02:15:40;;;;;;;20.03;18.30;;;14.00;99.90;;;;;;5058642;28;20502;-49
2023/06/09 02:18:07;;;;;;;21.50;19.50;;;13.90;99.90;;;;;;5058664;28;20439;-59
2023/06/09 02:20:33;;;;;;;20.13;18.27;;;13.90;99.90;;;;;;5058607;28;20415;-59
2023/06/09 02:22:58;;;;;;;19.87;17.97;;;13.90;99.90;;;;;;5057634;28;20806;-59
2023/06/09 02:25:24;;;;;;;22.13;20.23;;;13.90;99.90;;;;;;5059205;28;20477;-60
2023/06/09 02:27:49;;;;;;;20.40;18.60;;;13.80;99.90;;;;;;5062860;28;20554;-60
2023/06/09 02:30:15;;;;;;;21.37;19.40;;;13.80;99.90;;;;;;5062984;28;20614;-59
2023/06/09 02:32:42;;;;;;;20.80;18.80;;;13.70;99.90;;;;;;5063002;28;20193;-50
2023/06/09 02:35:07;;;;;;;21.73;19.53;;;13.70;99.90;;;;;;5062647;28;20235;-60
2023/06/09 02:37:35;;;;;;;19.90;18.13;;;13.70;99.90;;;;;;5061780;28;20852;-54
2023/06/09 02:40:00;;;;;;;21.40;19.40;;;13.60;99.90;;;;;;5061749;28;20189;-60
2023/06/09 02:42:26;;;;;;;19.40;17.80;;;13.60;99.90;;;;;;5062650;28;20631;-57
2023/06/09 02:44:51;;;;;;;20.00;18.10;;;13.60;99.90;;;;;;5062203;28;20193;-50
2023/06/09 02:47:17;;;;;;;21.17;19.17;;;13.60;99.90;;;;;;5062377;28;20192;-57
2023/06/09 02:49:43;;;;;;;21.30;19.50;;;13.60;99.90;;;;;;5061747;28;20260;-59
2023/06/09 02:52:09;;;;;;;21.20;19.30;;;13.50;99.90;;;;;;5043890;28;20204;-58
2023/06/09 02:54:35;;;;;;;20.10;18.20;;;13.50;99.90;;;;;;5062351;28;20671;-57
2023/06/09 02:57:02;;;;;;;21.10;19.20;;;13.50;99.90;;;;;;5062427;28;20470;-60
2023/06/09 02:59:28;;;;;;;21.20;19.30;;;13.50;99.90;;;;;;5062197;28;20419;-60
2023/06/09 03:01:53;;;;;;;22.63;20.53;;;13.50;99.90;;;;;;5061863;28;20475;-51
2023/06/09 03:04:21;;;;;;;21.40;19.40;;;13.50;99.90;;;;;;5062001;28;20870;-60
2023/06/09 03:06:50;;;;;;;21.13;19.23;;;13.50;99.90;;;;;;5062257;28;20905;-53
2023/06/09 03:09:16;;;;;;;21.83;19.73;;;13.50;99.90;;;;;;5062001;28;20434;-60
2023/06/09 03:11:41;;;;;;;21.73;19.73;;;13.50;99.90;;;;;;5062212;28;20514;-48
2023/06/09 03:14:07;;;;;;;22.80;20.70;;;13.50;99.90;;;;;;5062022;28;20200;-53
2023/06/09 03:16:33;;;;;;;21.63;19.63;;;13.50;99.90;;;;;;5061317;28;20193;-58
2023/06/09 03:18:58;;;;;;;22.40;20.23;;;13.50;99.90;;;;;;5061824;28;20655;-60
2023/06/09 03:21:24;;;;;;;21.63;19.67;;;13.50;99.90;;;;;;5061854;28;20212;-59
2023/06/09 03:23:50;;;;;;;21.73;19.73;;;13.60;99.90;;;;;;5061598;28;20237;-60
2023/06/09 03:26:18;;;;;;;23.60;21.27;;;13.60;99.90;;;;;;5061865;28;20411;-56
2023/06/09 03:28:43;;;;;;;23.17;20.80;;;13.60;99.90;;;;;;5061866;28;21173;-54
2023/06/09 03:31:09;;;;;;;24.13;21.83;;;13.60;99.90;;;;;;5061067;28;20853;-59
2023/06/09 03:33:35;;;;;;;21.60;19.40;;;13.70;99.90;;;;;;5060938;28;20450;-56
2023/06/09 03:36:01;;;;;;;22.53;20.43;;;13.70;99.90;;;;;;5061717;28;20195;-56
2023/06/09 03:38:26;;;;;;;22.47;19.93;;;13.70;99.90;;;;;;5060474;28;20687;-59
2023/06/09 03:40:52;;;;;;;21.40;19.20;;;13.70;99.90;;;;;;5061821;28;20283;-54
2023/06/09 03:43:17;;;;;;;21.47;19.40;;;13.80;99.90;;;;;;5061158;28;20185;-59
2023/06/09 03:45:43;;;;;;;22.40;20.10;;;13.70;99.90;;;;;;5061353;28;20882;-59
2023/06/09 03:48:09;;;;;;;23.37;21.03;;;13.70;99.90;;;;;;5061586;28;20192;-59
2023/06/09 03:50:35;;;;;;;21.67;19.37;;;13.70;99.90;;;;;;5061200;28;20268;-58
2023/06/09 03:53:00;;;;;;;22.57;20.37;;;13.70;99.90;;;;;;5043661;28;20199;-59
2023/06/09 03:55:29;;;;;;;20.97;18.97;;;13.70;99.90;;;;;;5061638;28;20197;-59
2023/06/09 03:57:55;;;;;;;21.77;19.57;;;13.70;99.90;;;;;;5060195;28;20196;-56
2023/06/09 04:00:21;;;;;;;22.60;20.30;;;13.80;99.90;;;;;;5060207;28;20419;-61
2023/06/09 04:02:47;;;;;;;23.57;21.30;;;13.80;99.90;;;;;;5059535;28;20625;-59
2023/06/09 04:05:13;;;;;;;23.90;20.57;;;13.80;99.90;;;;;;5061289;28;20441;-54
2023/06/09 04:07:39;;;;;;;23.17;20.87;;;13.80;99.90;;;;;;5061058;28;20181;-60
2023/06/09 04:10:06;;;;;;;23.30;20.80;;;13.80;99.90;;;;;;5060534;28;20200;-61
2023/06/09 04:12:31;;;;;;;24.70;22.17;;;13.80;99.90;;;;;;5060577;28;20458;-53
2023/06/09 04:14:57;;;;;;;23.33;21.00;;;13.80;99.90;;;;;;5061030;28;20427;-58
2023/06/09 04:17:22;;;;;;;23.97;21.67;;;13.80;99.90;;;;;;5060968;28;20193;-55
2023/06/09 04:19:48;;;;;;;24.20;21.80;;;13.90;99.90;;;;;;5060753;28;20714;-60
2023/06/09 04:22:14;;;;;;;23.70;21.33;;;13.90;99.90;;;;;;5040524;28;20216;-49
2023/06/09 04:24:40;;;;;;;23.50;21.10;;;13.90;99.90;;;;;;5060658;28;20467;-54
2023/06/09 04:27:07;;;;;;;23.13;20.80;;;13.90;99.90;;;;;;5059979;28;20658;-60
2023/06/09 04:29:33;;;;;;;22.73;20.43;;;13.90;99.90;;;;;;5060535;28;20184;-56
2023/06/09 04:31:59;;;;;;;25.60;22.90;;;13.90;99.90;;;;;;5060617;28;20430;-60
2023/06/09 04:34:28;;;;;;;25.07;22.47;;;13.90;99.90;;;;;;5059164;28;20789;-55
2023/06/09 04:36:55;;;;;;;24.63;22.03;;;13.90;99.90;;;;;;5058900;28;20481;-58
2023/06/09 04:39:28;;;;;;;24.40;22.10;;;14.00;99.90;;;;;;5059814;28;20434;-59
2023/06/09 04:41:54;;;;;;;24.63;22.13;;;14.00;99.90;;;;;;5058752;28;20917;-60
2023/06/09 04:44:20;;;;;;;25.50;22.57;;;14.00;99.90;;;;;;5059328;28;20926;-60
2023/06/09 04:46:47;;;;;;;25.83;22.80;;;14.00;99.90;;;;;;5060708;28;20215;-61
2023/06/09 04:49:12;;;;;;;25.43;23.00;;;14.10;99.90;;;;;;5059990;28;20534;-58
2023/06/09 04:51:46;;;;;;;25.10;22.27;;;14.10;99.90;;;;;;5060325;28;20434;-59
2023/06/09 04:54:13;;;;;;;23.57;21.10;;;14.20;99.90;;;;;;5042106;28;20472;-44
2023/06/09 04:56:40;;;;;;;24.63;22.13;;;14.20;99.90;;;;;;5042038;28;20469;-44
2023/06/09 04:59:07;;;;;;;25.10;22.70;;;14.30;99.90;;;;;;5059822;28;20427;-47
2023/06/09 05:01:33;;;;;;;24.70;22.30;;;14.30;99.90;;;;;;5058967;28;20463;-44
2023/06/09 05:04:00;;;;;;;24.67;22.07;;;14.30;99.90;;;;;;5060203;28;21180;-42
2023/06/09 05:06:26;;;;;;;24.00;21.70;;;14.30;99.90;;;;;;5060281;28;20423;-45
2023/06/09 05:08:51;;;;;;;24.47;21.87;;;14.40;99.90;;;;;;5059713;28;20522;-44
2023/06/09 05:11:17;;;;;;;24.97;22.10;;;14.40;99.90;;;;;;5060096;28;20423;-43
2023/06/09 05:13:43;;;;;;;23.67;21.27;;;14.60;99.90;;;;;;5060147;28;20223;-45
2023/06/09 05:16:08;;;;;;;24.20;21.90;;;14.60;99.90;;;;;;5059613;28;20908;-45
2023/06/09 05:18:34;;;;;;;24.30;22.00;;;14.60;99.90;;;;;;5059814;28;20181;-44
2023/06/09 05:21:00;;;;;;;23.93;21.70;;;14.70;99.90;;;;;;5059412;28;20197;-44
2023/06/09 05:23:25;;;;;;;23.20;21.00;;;14.80;99.90;;;;;;5059638;28;20229;-50
2023/06/09 05:25:51;;;;;;;23.60;21.60;;;14.90;99.90;;;;;;5059788;28;20578;-44
2023/06/09 05:28:17;;;;;;;23.97;21.67;;;15.00;99.90;;;;;;5059355;28;20189;-46
2023/06/09 05:30:42;;;;;;;24.20;22.10;;;15.00;99.90;;;;;;5057798;28;20185;-49
2023/06/09 05:33:08;;;;;;;26.03;23.73;;;15.10;99.90;;;;;;5039937;28;20184;-43
2023/06/09 05:35:33;;;;;;;24.40;22.07;;;15.10;99.90;;;;;;5059922;28;20181;-46
2023/06/09 05:37:59;;;;;;;25.13;22.73;;;15.20;99.90;;;;;;5041167;28;20200;-48
2023/06/09 05:40:25;;;;;;;24.60;22.30;;;15.20;99.90;;;;;;5059585;28;20185;-48
2023/06/09 05:42:50;;;;;;;24.80;22.30;;;15.30;99.90;;;;;;5059465;28;20213;-45
2023/06/09 05:45:16;;;;;;;24.10;21.90;;;15.30;99.90;;;;;;5057421;28;20276;-43
2023/06/09 05:47:42;;;;;;;23.80;21.80;;;15.40;99.90;;;;;;5059963;28;20560;-44
2023/06/09 05:50:08;;;;;;;22.43;20.53;;;15.50;99.90;;;;;;5059375;28;20177;-44
2023/06/09 05:52:33;;;;;;;21.93;20.03;;;15.60;99.90;;;;;;5059419;28;20211;-43
2023/06/09 05:55:00;;;;;;;25.10;22.90;;;15.70;99.90;;;;;;5059130;28;20419;-46
2023/06/09 05:57:32;;;;;;;24.60;22.57;;;15.80;99.90;;;;;;5059299;28;20560;-48
2023/06/09 05:59:58;;;;;;;23.80;21.80;;;15.90;99.90;;;;;;5058829;28;20443;-43
2023/06/09 06:02:24;;;;;;;23.33;21.50;;;15.90;99.90;;;;;;5063292;28;20495;-52
2023/06/09 06:04:50;;;;;;;24.17;22.20;;;16.00;99.90;;;;;;5063581;28;20184;-49
2023/06/09 06:07:16;;;;;;;25.00;22.80;;;16.10;99.90;;;;;;5063462;28;20629;-43
2023/06/09 06:09:42;;;;;;;24.83;22.90;;;16.20;99.90;;;;;;5063558;28;20628;-44
2023/06/09 06:12:08;;;;;;;24.73;22.73;;;16.20;99.90;;;;;;5063281;28;20419;-46
2023/06/09 06:14:33;;;;;;;26.30;24.10;;;16.30;99.90;;;;;;5062245;28;20200;-43
2023/06/09 06:16:59;;;;;;;26.37;24.10;;;16.40;99.90;;;;;;5063404;28;20976;-44
2023/06/09 06:19:25;;;;;;;27.23;24.80;;;16.50;99.90;;;;;;5062848;28;20457;-44
2023/06/09 06:21:50;;;;;;;25.00;22.80;;;16.50;99.90;;;;;;5062914;28;20221;-46
2023/06/09 06:24:16;;;;;;;25.83;23.63;;;16.60;99.90;;;;;;5062904;28;20429;-45
2023/06/09 06:26:41;;;;;;;24.77;22.70;;;16.80;99.90;;;;;;5063131;28;20208;-44
2023/06/09 06:29:07;;;;;;;24.60;22.60;;;16.90;99.90;;;;;;5062843;28;20803;-48
2023/06/09 06:31:33;;;;;;;25.37;23.17;;;17.00;99.90;;;;;;5062411;28;20189;-47
2023/06/09 06:33:58;;;;;;;26.40;24.30;;;17.20;99.90;;;;;;5062954;28;20193;-43
2023/06/09 06:36:26;;;;;;;25.30;23.30;;;17.30;99.90;;;;;;5061990;28;20199;-47
2023/06/09 06:38:51;;;;;;;24.17;22.20;;;17.40;99.90;;;;;;5059428;28;20185;-44
2023/06/09 06:41:17;;;;;;;24.20;22.20;;;17.50;99.90;;;;;;5062087;28;20544;-43
2023/06/09 06:43:43;;;;;;;27.33;25.13;;;17.60;99.90;;;;;;5061949;28;20196;-47
2023/06/09 06:46:11;;;;;;;26.47;24.17;;;17.70;99.90;;;;;;5061748;28;20189;-47
2023/06/09 06:48:38;;;;;;;26.60;24.47;;;17.80;99.90;;;;;;5060845;28;20246;-45
2023/06/09 06:51:07;;;;;;;25.40;23.40;;;17.90;99.90;;;;;;5061640;28;20427;-45
2023/06/09 06:53:33;;;;;;;26.37;24.07;;;18.00;99.90;;;;;;5061628;28;20431;-47
2023/06/09 06:55:59;;;;;;;25.87;23.47;;;18.00;99.90;;;;;;5062560;28;20458;-43
2023/06/09 06:58:27;;;;;;;24.10;22.10;;;18.20;99.90;;;;;;5062580;28;20435;-45
2023/06/09 07:00:55;;;;;;;24.97;22.80;;;18.20;99.90;;;;;;5062226;28;20310;-43
2023/06/09 07:03:20;;;;;;;23.40;21.60;;;18.30;99.90;;;;;;5062242;28;20771;-46
2023/06/09 07:05:46;;;;;;;26.23;24.17;;;18.40;99.90;;;;;;5062380;28;20926;-44
2023/06/09 07:08:12;;;;;;;23.73;21.83;;;18.50;99.90;;;;;;5060195;28;20196;-48
2023/06/09 07:10:37;;;;;;;25.20;23.20;;;18.60;99.90;;;;;;5062432;28;20818;-43
2023/06/09 07:13:03;;;;;;;26.60;24.10;;;18.70;99.90;;;;;;5061071;28;20742;-46
2023/06/09 07:15:28;;;;;;;25.23;23.23;;;18.80;99.90;;;;;;5061924;28;20192;-47
2023/06/09 07:17:54;;;;;;;25.23;23.13;;;18.90;99.90;;;;;;5062039;28;20269;-50
2023/06/09 07:20:20;;;;;;;23.90;21.90;;;19.00;99.90;;;;;;5061773;28;20188;-45
2023/06/09 07:22:50;;;;;;;24.60;22.60;;;19.10;99.90;;;;;;5061788;28;20964;-47
2023/06/09 07:25:16;;;;;;;24.20;22.30;;;19.20;99.90;;;;;;5061654;28;20225;-47
2023/06/09 07:27:42;;;;;;;25.63;23.53;;;19.30;99.90;;;;;;5060456;28;20427;-47
2023/06/09 07:30:08;;;;;;;23.70;21.80;;;19.50;99.90;;;;;;5042648;28;20480;-45
2023/06/09 07:32:34;;;;;;;23.90;22.00;;;19.70;99.90;;;;;;5061551;28;20184;-44
2023/06/09 07:34:59;;;;;;;24.10;22.30;;;19.70;99.90;;;;;;5060986;28;20713;-46
2023/06/09 07:37:25;;;;;;;25.30;23.40;;;19.90;99.90;;;;;;5061289;28;20292;-47
2023/06/09 07:39:51;;;;;;;25.47;23.47;;;20.00;99.90;;;;;;5061752;28;20416;-44
2023/06/09 07:42:16;;;;;;;26.43;24.23;;;20.20;99.90;;;;;;5061683;28;20231;-44
2023/06/09 07:44:42;;;;;;;25.57;23.57;;;20.30;99.90;;;;;;5061584;28;20177;-46
2023/06/09 07:47:08;;;;;;;24.50;22.50;;;20.40;99.90;;;;;;5061394;28;20185;-48
2023/06/09 07:49:33;;;;;;;24.17;22.37;;;20.50;99.90;;;;;;5061593;28;20211;-48
2023/06/09 07:51:59;;;;;;;25.37;23.47;;;20.70;99.90;;;;;;5061233;28;20530;-44
2023/06/09 07:54:25;;;;;;;24.73;22.83;;;20.80;99.90;;;;;;5061487;28;20207;-46
2023/06/09 07:56:50;;;;;;;24.23;22.23;;;21.00;99.90;;;;;;5061246;28;20234;-45
2023/06/09 07:59:20;;;;;;;25.47;23.37;;;21.20;99.90;;;;;;5061617;28;20577;-47
2023/06/09 08:01:46;;;;;;;24.53;22.63;;;21.30;99.90;;;;;;5061269;28;20600;-47
2023/06/09 08:04:13;;;;;;;23.53;21.73;;;21.40;99.90;;;;;;5061395;28;21280;-43
2023/06/09 08:06:39;;;;;;;24.17;22.30;;;21.50;99.90;;;;;;5060197;28;20458;-46
2023/06/09 08:09:05;;;;;;;24.67;22.90;;;21.70;99.90;;;;;;5061195;28;20420;-48
2023/06/09 08:11:31;;;;;;;26.37;24.27;;;21.90;99.90;;;;;;5061280;28;20892;-44
2023/06/09 08:13:57;;;;;;;24.73;22.93;;;22.00;99.90;;;;;;5061179;28;20937;-44
2023/06/09 08:16:23;;;;;;;26.67;24.33;;;22.30;99.90;;;;;;5060925;28;20427;-45
2023/06/09 08:18:49;;;;;;;25.37;23.57;;;22.40;99.90;;;;;;5060695;28;20423;-46
2023/06/09 08:21:14;;;;;;;25.63;23.73;;;22.50;99.90;;;;;;5060514;28;20601;-44
2023/06/09 08:23:44;;;;;;;26.43;24.10;;;22.60;99.90;;;;;;5060034;28;20237;-48
2023/06/09 08:26:10;;;;;;;25.90;23.80;;;22.70;99.90;;;;;;5059607;28;20663;-45
2023/06/09 08:28:36;;;;;;;25.90;23.97;;;22.70;99.90;;;;;;5060529;28;20427;-46
2023/06/09 08:31:03;;;;;;;27.13;25.00;;;22.80;99.90;;;;;;5060669;28;20415;-45
2023/06/09 08:33:33;;;;;;;23.63;22.00;;;22.80;99.90;;;;;;5060185;28;20447;-44
2023/06/09 08:35:59;;;;;;;25.20;23.40;;;23.00;99.90;;;;;;5060647;28;20408;-43
2023/06/09 08:38:25;;;;;;;24.20;22.50;;;23.20;99.90;;;;;;5060542;28;20706;-44
2023/06/09 08:40:53;;;;;;;24.47;22.70;;;23.40;99.90;;;;;;5060451;28;20457;-48
2023/06/09 08:43:19;;;;;;;25.47;23.67;;;23.50;99.90;;;;;;5060262;28;20232;-48
2023/06/09 08:45:47;;;;;;;26.90;24.90;;;23.80;99.90;;;;;;5060390;28;20762;-44
2023/06/09 08:48:18;;;;;;;25.77;23.77;;;23.90;98.40;;;;;;5060033;28;20443;-46
2023/06/09 08:50:45;;;;;;;25.23;23.30;;;24.00;97.70;;;;;;5060035;28;20977;-49
2023/06/09 08:53:12;;;;;;;25.07;23.17;;;24.10;99.30;;;;;;5060393;28;20775;-43
2023/06/09 08:55:38;;;;;;;25.47;23.67;;;24.30;96.30;;;;;;5059958;28;20443;-44
2023/06/09 08:58:04;;;;;;;26.67;24.77;;;24.50;96.00;;;;;;5057963;28;20906;-45
2023/06/09 09:00:30;;;;;;;26.23;24.33;;;24.70;94.40;;;;;;5059198;28;20443;-46
2023/06/09 09:02:56;;;;;;;25.00;23.30;;;24.80;91.60;;;;;;5059734;28;20827;-44
2023/06/09 09:05:22;;;;;;;24.53;22.83;;;24.90;94.50;;;;;;5059954;28;20200;-45
2023/06/09 09:07:47;;;;;;;26.03;24.23;;;25.20;94.30;;;;;;5060150;28;20446;-44
2023/06/09 09:10:14;;;;;;;25.60;23.80;;;25.60;90.30;;;;;;5059674;28;20193;-45
2023/06/09 09:12:50;;;;;;;24.57;22.80;;;25.70;90.90;;;;;;5060225;28;20183;-44
2023/06/09 09:15:17;;;;;;;25.03;23.43;;;26.20;90.20;;;;;;5060078;28;20472;-46
2023/06/09 09:17:47;;;;;;;25.40;23.70;;;26.50;85.00;;;;;;5059746;28;20427;-47
2023/06/09 09:20:14;;;;;;;22.70;21.20;;;26.60;78.20;;;;;;5059748;28;20418;-44
2023/06/09 09:22:48;;;;;;;23.40;21.83;;;27.00;72.30;;;;;;5059272;28;20467;-45
2023/06/09 09:25:22;;;;;;;23.90;22.30;;;27.30;74.80;;;;;;5059667;28;20471;-48
2023/06/09 09:28:08;;;;;;;24.57;22.97;;;27.70;65.20;;;;;;5057626;28;20447;-44
2023/06/09 09:30:48;;;;;;;24.67;23.00;;;28.00;63.30;;;;;;5059597;28;20451;-45
2023/06/09 09:33:16;;;;;;;23.43;21.87;;;28.70;65.50;;;;;;5059815;28;20419;-46
2023/06/09 09:35:53;;;;;;;23.17;21.67;;;29.30;60.60;;;;;;5059057;28;20419;-46
2023/06/09 09:38:24;;;;;;;22.90;21.40;;;30.00;53.70;;;;;;5059546;28;20760;-45
2023/06/09 09:40:51;;;;;;;21.53;20.20;;;30.50;51.50;;;;;;5059360;28;20418;-47
2023/06/09 09:43:19;;;;;;;21.77;20.57;;;30.70;49.40;;;;;;5059383;28;20516;-46
2023/06/09 09:45:50;;;;;;;22.07;20.77;;;30.60;47.70;;;;;;5059406;28;20436;-47
2023/06/09 09:48:21;;;;;;;18.20;17.07;;;30.90;44.40;;;;;;5059271;28;20419;-47
2023/06/09 09:50:48;;;;;;;17.10;16.17;;;31.20;43.80;;;;;;5059405;28;20838;-45
2023/06/09 09:53:15;;;;;;;17.43;16.10;;;31.70;38.70;;;;;;5059523;28;20429;-45
2023/06/09 09:55:45;;;;;;;18.03;16.93;;;32.20;34.00;;;;;;5058349;28;20437;-47
2023/06/09 09:58:12;;;;;;;17.13;16.13;;;32.50;30.30;;;;;;5059528;28;20450;-47
2023/06/09 10:00:41;;;;;;;17.17;16.17;;;32.50;30.60;;;;;;5059296;28;20427;-44
2023/06/09 10:03:14;;;;;;;17.57;16.57;;;32.70;29.30;;;;;;5059197;28;20470;-43
2023/06/09 10:05:45;;;;;;;18.67;17.70;;;33.00;28.40;;;;;;5059267;28;21122;-45
2023/06/09 10:08:15;;;;;;;17.80;16.80;;;33.50;28.70;;;;;;5059386;28;20812;-44
2023/06/09 10:10:42;;;;;;;17.17;16.17;;;33.70;28.30;;;;;;5059295;28;20951;-46
2023/06/09 10:13:07;;;;;;;17.40;16.50;;;33.90;28.20;;;;;;5059584;28;20419;-52
2023/06/09 10:15:34;;;;;;;18.27;17.37;;;34.00;27.90;;;;;;5059077;28;20418;-48
2023/06/09 10:18:01;;;;;;;16.60;15.80;;;34.40;27.40;;;;;;5059072;28;20415;-48
2023/06/09 10:20:27;;;;;;;17.03;15.93;;;34.50;26.30;;;;;;5058981;28;20427;-47
2023/06/09 10:22:53;;;;;;;17.00;16.10;;;34.80;25.90;;;;;;5059142;28;20454;-45
2023/06/09 10:25:20;;;;;;;17.50;16.50;;;35.20;27.00;;;;;;5058125;28;20225;-44
2023/06/09 10:27:48;;;;;;;18.80;17.80;;;35.30;24.80;;;;;;5059112;28;20423;-45
2023/06/09 10:30:15;;;;;;;16.80;15.90;;;35.20;25.70;;;;;;5059105;28;20422;-49
2023/06/09 10:32:47;;;;;;;18.20;17.30;;;35.40;25.70;;;;;;5059339;28;20553;-46
2023/06/09 10:35:16;;;;;;;17.07;16.03;;;35.60;23.80;;;;;;5059039;28;20423;-47
2023/06/09 10:37:42;;;;;;;16.57;15.70;;;35.70;24.90;;;;;;5058955;28;20477;-50
2023/06/09 10:40:28;;;;;;;17.40;16.50;;;35.70;24.00;;;;;;5058805;28;20830;-48
2023/06/09 10:43:27;;;;;;;17.03;16.23;;;35.90;24.00;;;;;;5058897;28;20284;-52
2023/06/09 10:45:57;;;;;;;18.13;17.13;;;36.30;23.90;;;;;;5058848;28;20809;-49
2023/06/09 10:48:41;;;;;;;18.03;17.13;;;36.70;22.70;;;;;;5062302;28;20771;-50
2023/06/09 10:51:28;;;;;;;18.60;17.60;;;36.60;22.50;;;;;;5062751;28;20787;-44
2023/06/09 10:54:15;;;;;;;16.83;15.93;;;36.80;22.80;;;;;;5043515;28;21496;-50
2023/06/09 10:56:47;;;;;;;17.40;16.40;;;37.30;22.30;;;;;;5062795;28;20419;-49
2023/06/09 10:59:25;;;;;;;18.03;17.10;;;37.40;21.60;;;;;;5044440;28;20425;-48
2023/06/09 11:02:02;;;;;;;18.43;17.47;;;37.30;22.50;;;;;;5062005;28;20505;-49
2023/06/09 11:07:13;;;;;;;17.63;16.63;;;38.10;21.70;;;;;;5062007;28;20498;-45
2023/06/09 11:09:39;;;;;;;18.17;17.27;;;38.20;21.60;;;;;;5062879;28;20971;-59
2023/06/09 11:12:08;;;;;;;17.33;16.50;;;38.30;21.00;;;;;;5062082;28;20422;-57
2023/06/09 11:14:46;;;;;;;16.93;16.13;;;38.60;20.70;;;;;;5062162;28;21356;-59
2023/06/09 11:17:22;;;;;;;18.77;17.77;;;39.00;21.50;;;;;;5061203;28;21629;-59
2023/06/09 11:19:49;;;;;;;18.77;17.87;;;38.70;19.80;;;;;;5062291;28;20415;-59
2023/06/09 11:22:15;;;;;;;18.27;17.37;;;38.30;19.70;;;;;;5061751;28;20463;-59
2023/06/09 11:24:55;;;;;;;18.07;17.20;;;37.70;21.10;;;;;;5026525;28;20826;-59
2023/06/09 11:27:22;;;;;;;17.13;16.23;;;37.70;21.10;;;;;;5022040;28;20221;-54
2023/06/09 11:30:24;;;;;;;18.30;17.30;;;38.00;20.20;;;;;;5022466;28;20414;-60
2023/06/09 11:32:55;;;;;;;16.93;16.13;;;38.30;20.00;;;;;;4979481;28;21012;-52
2023/06/09 11:35:29;;;;;;;17.47;16.57;;;38.00;19.10;;;;;;5014648;28;20522;-60
2023/06/09 11:37:59;;;;;;;18.23;17.33;;;37.90;19.90;;;;;;5021506;28;20412;-58
2023/06/09 11:40:30;;;;;;;16.90;16.00;;;37.70;20.50;;;;;;5021747;28;20998;-56
2023/06/09 11:42:57;;;;;;;16.27;15.47;;;37.90;19.90;;;;;;5020203;28;20453;-59
2023/06/09 11:45:28;;;;;;;16.83;15.93;;;38.30;17.90;;;;;;5021308;28;20988;-55
2023/06/09 11:47:56;;;;;;;16.07;15.27;;;38.60;17.70;;;;;;5020293;28;20444;-59
2023/06/09 11:50:24;;;;;;;16.73;15.67;;;38.90;17.10;;;;;;5021019;28;20448;-59
2023/06/09 11:53:08;;;;;;;15.67;14.93;;;39.00;17.70;;;;;;5021229;28;20999;-58
2023/06/09 11:55:34;;;;;;;17.57;16.67;;;39.10;18.50;;;;;;5021377;28;20471;-58
2023/06/09 11:58:01;;;;;;;15.67;14.97;;;39.70;17.50;;;;;;5020758;28;20927;-43
2023/06/09 12:00:28;;;;;;;16.90;16.00;;;40.00;17.80;;;;;;5021360;28;20262;-46
2023/06/09 12:02:56;;;;;;;16.17;15.37;;;40.20;17.10;;;;;;5021303;28;20504;-47
2023/06/09 12:05:23;;;;;;;16.50;15.60;;;39.70;16.80;;;;;;5021445;28;20574;-49
2023/06/09 12:07:50;;;;;;;14.70;14.00;;;39.50;16.50;;;;;;5019175;28;20586;-51
2023/06/09 12:10:19;;;;;;;16.27;15.50;;;39.70;17.50;;;;;;5021396;28;21005;-45
2023/06/09 12:12:46;;;;;;;15.43;14.63;;;39.90;15.20;;;;;;5019592;28;20518;-44
2023/06/09 12:15:13;;;;;;;15.60;14.90;;;39.90;16.30;;;;;;5019692;28;20788;-48
2023/06/09 12:17:40;;;;;;;15.37;14.67;;;39.60;17.30;;;;;;5019483;28;20447;-46
2023/06/09 12:20:32;;;;;;;16.20;15.40;;;39.60;16.70;;;;;;5020524;28;20468;-48
2023/06/09 12:23:13;;;;;;;16.70;15.80;;;39.90;15.70;;;;;;5020625;28;20417;-45
2023/06/09 12:25:43;;;;;;;16.00;15.20;;;40.10;16.40;;;;;;5040756;28;20452;-45
2023/06/09 12:28:21;;;;;;;15.47;14.77;;;40.10;16.10;;;;;;5040628;28;20910;-47
2023/06/09 12:30:48;;;;;;;13.20;12.60;;;40.10;15.60;;;;;;5040499;28;20605;-48
2023/06/09 12:33:15;;;;;;;14.27;13.57;;;39.40;15.50;;;;;;5040487;28;20510;-50
2023/06/09 12:35:43;;;;;;;15.50;14.80;;;38.90;16.00;;;;;;5040899;28;20416;-45